createdAt,value
2023-02-20T00:02:37.784Z,19.10
2023-02-20T00:05:24.138Z,18.17
2023-02-20T00:08:10.004Z,17.90
2023-02-20T00:10:55.744Z,17.58
2023-02-20T00:13:48.931Z,17.45
2023-02-20T00:16:34.791Z,16.80
2023-02-20T00:19:20.738Z,16.65
2023-02-20T00:22:06.547Z,16.85
2023-02-20T00:24:52.859Z,15.40
2023-02-20T00:27:38.913Z,15.20
2023-02-20T00:30:25.110Z,15.38
2023-02-20T00:33:11.011Z,14.93
2023-02-20T00:35:56.796Z,15.45
2023-02-20T00:38:45.268Z,15.98
2023-02-20T00:41:31.098Z,15.85
2023-02-20T00:44:17.871Z,16.52
2023-02-20T00:47:03.974Z,17.67
2023-02-20T00:49:50.390Z,15.70
2023-02-20T00:52:36.455Z,15.73
2023-02-20T00:55:22.636Z,13.63
2023-02-20T00:58:08.681Z,14.20
2023-02-20T01:00:54.453Z,14.68
2023-02-20T01:03:42.591Z,14.30
2023-02-20T01:06:28.495Z,13.57
2023-02-20T01:09:14.465Z,13.27
2023-02-20T01:12:01.159Z,14.15
2023-02-20T01:14:47.070Z,15.18
2023-02-20T01:17:32.884Z,14.88
2023-02-20T01:20:19.056Z,17.90
2023-02-20T01:23:04.840Z,14.13
2023-02-20T01:25:51.179Z,14.65
2023-02-20T01:28:37.221Z,12.70
2023-02-20T01:31:23.656Z,12.40
2023-02-20T01:34:09.523Z,12.82
2023-02-20T01:36:55.908Z,13.15
2023-02-20T01:39:47.632Z,13.07
2023-02-20T01:42:34.603Z,12.00
2023-02-20T01:45:23.470Z,11.75
2023-02-20T01:48:26.070Z,12.25
2023-02-20T01:51:11.862Z,13.88
2023-02-20T01:53:57.733Z,13.23
2023-02-20T01:56:45.714Z,13.38
2023-02-20T01:59:33.463Z,13.30
2023-02-20T02:02:20.102Z,13.20
2023-02-20T02:05:08.210Z,12.43
2023-02-20T02:07:54.698Z,13.10
2023-02-20T02:10:54.510Z,13.65
2023-02-20T02:13:40.569Z,12.02
2023-02-20T02:16:45.278Z,10.68
2023-02-20T02:19:56.252Z,10.90
2023-02-20T02:22:57.503Z,10.95
2023-02-20T02:25:57.603Z,9.85
2023-02-20T02:29:22.366Z,10.63
2023-02-20T02:32:33.486Z,10.63
2023-02-20T02:35:53.226Z,10.85
2023-02-20T02:39:02.254Z,10.38
2023-02-20T02:41:55.526Z,11.45
2023-02-20T02:44:57.827Z,11.10
2023-02-20T02:48:00.807Z,10.40
2023-02-20T02:50:47.849Z,9.80
2023-02-20T02:53:34.080Z,10.10
2023-02-20T02:56:22.792Z,10.25
2023-02-20T02:59:10.755Z,10.98
2023-02-20T03:02:01.474Z,10.00
2023-02-20T03:04:49.653Z,10.15
2023-02-20T03:07:38.258Z,10.95
2023-02-20T03:10:31.981Z,10.77
2023-02-20T03:13:18.793Z,11.18
2023-02-20T03:16:06.166Z,9.18
2023-02-20T03:18:53.135Z,9.43
2023-02-20T03:21:42.020Z,9.40
2023-02-20T03:24:28.838Z,9.82
2023-02-20T03:27:16.167Z,9.90
2023-02-20T03:30:02.717Z,8.75
2023-02-20T03:33:10.212Z,8.48
2023-02-20T03:36:16.777Z,8.80
2023-02-20T03:39:25.910Z,8.27
2023-02-20T03:42:32.523Z,8.27
2023-02-20T03:48:36.582Z,14.48
2023-02-20T03:51:23.591Z,36.95
2023-02-20T03:54:20.131Z,29.05
2023-02-20T03:57:33.133Z,20.70
2023-02-20T04:00:32.021Z,23.00
2023-02-20T04:03:25.391Z,19.80
2023-02-20T04:06:13.208Z,20.17
2023-02-20T04:09:03.289Z,14.07
2023-02-20T04:11:53.792Z,12.18
2023-02-20T04:14:39.778Z,12.55
2023-02-20T04:17:32.466Z,10.18
2023-02-20T04:20:19.316Z,9.45
2023-02-20T04:23:20.363Z,9.05
2023-02-20T04:26:18.897Z,8.75
2023-02-20T04:29:08.928Z,9.35
2023-02-20T04:31:56.833Z,8.40
2023-02-20T04:34:45.630Z,8.20
2023-02-20T04:37:31.402Z,8.20
2023-02-20T04:40:20.148Z,8.20
2023-02-20T04:43:06.356Z,8.55
2023-02-20T04:45:52.475Z,8.23
2023-02-20T04:48:38.927Z,8.77
2023-02-20T04:51:24.697Z,8.27
2023-02-20T04:54:10.564Z,7.65
2023-02-20T04:56:56.981Z,8.15
2023-02-20T04:59:43.124Z,8.18
2023-02-20T05:02:30.600Z,9.25
2023-02-20T05:05:29.786Z,8.63
2023-02-20T05:08:15.374Z,8.75
2023-02-20T05:11:01.354Z,9.57
2023-02-20T05:13:47.171Z,9.80
2023-02-20T05:16:33.194Z,11.18
2023-02-20T05:19:19.133Z,10.82
2023-02-20T05:22:21.655Z,11.32
2023-02-20T05:25:08.360Z,11.48
2023-02-20T05:27:54.388Z,11.35
2023-02-20T05:30:40.633Z,11.50
2023-02-20T05:33:26.600Z,10.50
2023-02-20T05:36:12.726Z,11.63
2023-02-20T05:38:58.724Z,8.82
2023-02-20T05:41:45.008Z,8.40
2023-02-20T05:44:31.098Z,8.63
2023-02-20T05:47:17.398Z,8.82
2023-02-20T05:50:03.461Z,11.38
2023-02-20T05:52:49.486Z,9.68
2023-02-20T05:55:35.461Z,8.07
2023-02-20T05:58:21.400Z,9.55
2023-02-20T06:01:07.224Z,8.93
2023-02-20T06:03:53.939Z,6.93
2023-02-20T06:06:41.475Z,6.85
2023-02-20T06:09:27.395Z,4.45
2023-02-20T06:12:14.667Z,4.22
2023-02-20T06:15:00.703Z,3.60
2023-02-20T06:17:46.467Z,4.07
2023-02-20T06:20:32.389Z,4.25
2023-02-20T06:23:18.069Z,4.18
2023-02-20T06:26:04.808Z,3.63
2023-02-20T06:28:50.915Z,4.18
2023-02-20T06:31:37.088Z,3.50
2023-02-20T06:34:25.736Z,3.05
2023-02-20T06:37:11.540Z,3.80
2023-02-20T06:39:58.030Z,3.22
2023-02-20T06:42:43.958Z,3.67
2023-02-20T06:45:29.802Z,3.38
2023-02-20T06:48:15.811Z,3.50
2023-02-20T06:51:01.722Z,3.63
2023-02-20T06:53:48.273Z,3.30
2023-02-20T06:56:35.902Z,2.58
2023-02-20T06:59:21.805Z,2.15
2023-02-20T07:02:11.466Z,3.20
2023-02-20T07:04:57.725Z,2.67
2023-02-20T07:07:43.937Z,2.03
2023-02-20T07:10:29.858Z,2.70
2023-02-20T07:13:15.621Z,2.17
2023-02-20T07:16:01.462Z,1.80
2023-02-20T07:18:47.123Z,2.40
2023-02-20T07:21:32.859Z,3.03
2023-02-20T07:24:18.746Z,2.20
2023-02-20T07:29:51.261Z,2.30
2023-02-20T07:32:37.094Z,2.28
2023-02-20T07:35:22.887Z,3.13
2023-02-20T07:38:08.989Z,2.40
2023-02-20T07:40:54.985Z,2.33
2023-02-20T07:43:40.798Z,2.03
2023-02-20T07:46:27.667Z,2.30
2023-02-20T07:49:13.565Z,2.15
2023-02-20T07:51:59.375Z,2.17
2023-02-20T07:54:45.217Z,2.45
2023-02-20T07:57:34.317Z,1.80
2023-02-20T08:00:21.117Z,1.80
2023-02-20T08:03:07.183Z,1.60
2023-02-20T08:05:52.864Z,1.63
2023-02-20T08:08:38.819Z,1.60
2023-02-20T08:11:24.771Z,1.50
2023-02-20T08:14:11.449Z,1.80
2023-02-20T08:16:57.607Z,1.80
2023-02-20T08:19:43.298Z,2.10
2023-02-20T08:22:41.125Z,1.80
2023-02-20T08:25:27.795Z,1.67
2023-02-20T08:28:14.614Z,1.85
2023-02-20T08:31:00.654Z,1.73
2023-02-20T08:33:46.904Z,1.73
2023-02-20T08:36:33.022Z,1.92
2023-02-20T08:39:19.022Z,2.10
2023-02-20T08:42:04.839Z,1.67
2023-02-20T08:44:50.766Z,1.65
2023-02-20T08:47:36.705Z,1.88
2023-02-20T08:50:22.822Z,1.63
2023-02-20T08:53:09.173Z,1.90
2023-02-20T08:55:55.110Z,1.75
2023-02-20T08:58:41.030Z,1.58
2023-02-20T09:01:26.959Z,1.20
2023-02-20T09:04:12.737Z,1.80
2023-02-20T09:06:58.621Z,1.38
2023-02-20T09:09:44.411Z,1.60
2023-02-20T09:12:31.131Z,1.27
2023-02-20T09:15:18.252Z,1.85
2023-02-20T09:18:05.504Z,2.28
2023-02-20T09:20:51.463Z,1.60
2023-02-20T09:23:37.621Z,1.70
2023-02-20T09:26:23.700Z,1.38
2023-02-20T09:29:09.849Z,1.40
2023-02-20T09:31:56.155Z,1.92
2023-02-20T09:34:42.045Z,1.25
2023-02-20T09:37:27.892Z,2.50
2023-02-20T09:40:14.239Z,2.25
2023-02-20T09:43:42.167Z,1.70
2023-02-20T09:46:28.348Z,1.95
2023-02-20T09:49:25.053Z,2.35
2023-02-20T09:52:13.766Z,2.00
2023-02-20T09:55:06.705Z,2.40
2023-02-20T09:57:53.834Z,1.77
2023-02-20T10:00:39.958Z,1.90
2023-02-20T10:03:41.076Z,2.05
2023-02-20T10:06:29.960Z,1.80
2023-02-20T10:09:16.300Z,1.70
2023-02-20T10:12:17.523Z,1.85
2023-02-20T10:15:22.204Z,1.80
2023-02-20T10:18:29.466Z,2.10
2023-02-20T10:21:37.340Z,1.88
2023-02-20T10:24:57.277Z,1.35
2023-02-20T10:28:05.872Z,1.40
2023-02-20T10:30:55.061Z,1.40
2023-02-20T10:33:47.545Z,1.20
2023-02-20T10:37:06.377Z,1.42
2023-02-20T10:40:05.183Z,1.05
2023-02-20T10:43:31.554Z,1.45
2023-02-20T10:46:32.388Z,1.48
2023-02-20T10:49:57.499Z,1.42
2023-02-20T10:52:54.282Z,1.60
2023-02-20T10:55:54.717Z,1.30
2023-02-20T10:58:46.415Z,1.38
2023-02-20T11:01:33.680Z,1.40
2023-02-20T11:04:38.296Z,1.38
2023-02-20T11:07:23.978Z,1.20
2023-02-20T11:10:10.010Z,1.35
2023-02-20T11:13:02.608Z,1.42
2023-02-20T11:15:51.141Z,1.30
2023-02-20T11:18:38.928Z,1.40
2023-02-20T11:21:42.643Z,1.25
2023-02-20T11:24:35.965Z,1.40
2023-02-20T11:27:25.805Z,1.30
2023-02-20T11:30:36.630Z,1.42
2023-02-20T11:33:24.508Z,1.30
2023-02-20T11:36:17.228Z,1.83
2023-02-20T11:39:20.086Z,1.45
2023-02-20T11:42:13.001Z,1.23
2023-02-20T11:48:13.224Z,1.33
2023-02-20T11:50:59.042Z,1.00
2023-02-20T11:53:44.968Z,1.98
2023-02-20T11:56:31.033Z,2.80
2023-02-20T11:59:33.814Z,1.85
2023-02-20T12:02:27.909Z,1.60
2023-02-20T12:05:14.884Z,1.73
2023-02-20T12:08:01.030Z,1.20
2023-02-20T12:10:53.588Z,1.52
2023-02-20T12:13:42.284Z,1.30
2023-02-20T12:16:50.592Z,1.60
2023-02-20T12:19:48.507Z,1.30
2023-02-20T12:22:39.146Z,1.02
2023-02-20T12:25:28.469Z,1.40
2023-02-20T12:28:33.460Z,1.40
2023-02-20T12:31:51.995Z,1.20
2023-02-20T12:34:50.872Z,1.40
2023-02-20T12:37:57.207Z,1.40
2023-02-20T12:41:01.701Z,1.30
2023-02-20T12:44:35.615Z,1.45
2023-02-20T12:47:40.031Z,1.20
2023-02-20T12:50:48.842Z,1.20
2023-02-20T12:54:04.399Z,1.30
2023-02-20T12:57:07.727Z,1.13
2023-02-20T12:59:59.529Z,1.20
2023-02-20T13:02:47.273Z,1.48
2023-02-20T13:05:34.885Z,1.30
2023-02-20T13:08:34.067Z,1.27
2023-02-20T13:11:23.062Z,1.85
2023-02-20T13:14:20.276Z,0.90
2023-02-20T13:17:24.517Z,1.25
2023-02-20T13:20:19.179Z,1.25
2023-02-20T13:23:17.003Z,1.70
2023-02-20T13:26:24.242Z,1.58
2023-02-20T13:29:17.987Z,1.58
2023-02-20T13:32:23.277Z,1.45
2023-02-20T13:35:40.261Z,1.35
2023-02-20T13:38:27.806Z,1.10
2023-02-20T13:41:13.960Z,0.90
2023-02-20T13:44:35.853Z,0.90
2023-02-20T13:47:34.671Z,1.10
2023-02-20T13:50:29.749Z,1.20
2023-02-20T13:53:16.346Z,27.35
2023-02-20T13:56:02.536Z,83.05
2023-02-20T13:58:49.361Z,42.28
2023-02-20T14:02:03.355Z,13.05
2023-02-20T14:05:01.567Z,5.20
2023-02-20T14:07:47.425Z,2.80
2023-02-20T14:10:38.187Z,1.80
2023-02-20T14:13:39.106Z,2.00
2023-02-20T14:16:28.743Z,1.80
2023-02-20T14:19:21.427Z,2.00
2023-02-20T14:22:21.111Z,1.48
2023-02-20T14:25:29.882Z,1.35
2023-02-20T14:28:15.902Z,1.48
2023-02-20T14:31:07.735Z,1.33
2023-02-20T14:34:10.036Z,1.30
2023-02-20T14:37:01.032Z,1.20
2023-02-20T14:39:47.118Z,1.35
2023-02-20T14:42:33.363Z,1.40
2023-02-20T14:45:25.495Z,1.88
2023-02-20T14:48:38.623Z,1.60
2023-02-20T14:54:14.252Z,1.70
2023-02-20T14:57:01.467Z,1.90
2023-02-20T14:59:49.145Z,1.60
2023-02-20T15:02:35.294Z,1.70
2023-02-20T15:05:31.903Z,1.95
2023-02-20T15:08:17.785Z,1.50
2023-02-20T15:11:15.040Z,2.10
2023-02-20T15:14:02.358Z,1.92
2023-02-20T15:16:48.783Z,6.55
2023-02-20T15:19:39.309Z,7.07
2023-02-20T15:22:34.517Z,5.10
2023-02-20T15:25:29.620Z,14.00
2023-02-20T15:28:18.693Z,13.13
2023-02-20T15:31:10.706Z,16.45
2023-02-20T15:33:57.267Z,36.03
2023-02-20T15:36:43.211Z,21.45
2023-02-20T15:39:30.905Z,15.07
2023-02-20T15:42:18.417Z,10.02
2023-02-20T15:45:04.601Z,9.93
2023-02-20T15:47:50.906Z,8.05
2023-02-20T15:50:36.790Z,7.45
2023-02-20T15:53:24.805Z,9.98
2023-02-20T15:56:11.074Z,3.90
2023-02-20T15:58:57.282Z,6.30
2023-02-20T16:01:43.391Z,3.25
2023-02-20T16:04:29.722Z,2.63
2023-02-20T16:07:17.519Z,4.82
2023-02-20T16:10:05.342Z,3.72
2023-02-20T16:12:56.362Z,2.35
2023-02-20T16:15:42.502Z,3.10
2023-02-20T16:18:28.366Z,3.50
2023-02-20T16:21:16.015Z,11.93
2023-02-20T16:24:01.994Z,16.50
2023-02-20T16:26:49.824Z,20.23
2023-02-20T16:29:36.714Z,11.02
2023-02-20T16:32:25.310Z,9.13
2023-02-20T16:35:14.680Z,9.13
2023-02-20T16:38:01.627Z,11.63
2023-02-20T16:40:49.370Z,13.52
2023-02-20T16:43:35.139Z,15.75
2023-02-20T16:46:32.885Z,13.15
2023-02-20T16:49:23.504Z,13.80
2023-02-20T16:52:39.191Z,16.08
2023-02-20T16:55:26.770Z,16.20
2023-02-20T16:58:13.305Z,18.20
2023-02-20T17:00:58.978Z,15.93
2023-02-20T17:03:44.833Z,12.70
2023-02-20T17:06:30.780Z,12.75
2023-02-20T17:09:17.246Z,14.63
2023-02-20T17:12:04.213Z,14.63
2023-02-20T17:14:50.240Z,13.35
2023-02-20T17:17:36.146Z,13.70
2023-02-20T17:20:24.505Z,12.50
2023-02-20T17:23:10.592Z,27.30
2023-02-20T17:25:58.001Z,24.90
2023-02-20T17:28:43.780Z,23.42
2023-02-20T17:31:29.734Z,21.23
2023-02-20T17:34:17.940Z,21.17
2023-02-20T17:37:04.122Z,22.42
2023-02-20T17:39:50.186Z,19.92
2023-02-20T17:42:36.149Z,13.48
2023-02-20T17:45:22.140Z,13.68
2023-02-20T17:48:08.533Z,14.30
2023-02-20T17:50:54.450Z,10.20
2023-02-20T17:53:40.330Z,6.85
2023-02-20T17:56:26.248Z,5.65
2023-02-20T17:59:12.432Z,7.10
2023-02-20T18:01:58.433Z,7.03
2023-02-20T18:04:45.092Z,8.05
2023-02-20T18:07:31.326Z,10.85
2023-02-20T18:10:19.086Z,10.70
2023-02-20T18:13:04.973Z,10.13
2023-02-20T18:15:51.019Z,11.07
2023-02-20T18:18:36.951Z,12.50
2023-02-20T18:21:25.728Z,12.38
2023-02-20T18:24:12.050Z,13.90
2023-02-20T18:26:58.236Z,18.35
2023-02-20T18:29:44.270Z,14.57
2023-02-20T18:32:31.309Z,11.00
2023-02-20T18:35:17.930Z,10.43
2023-02-20T18:38:04.218Z,9.98
2023-02-20T18:40:50.155Z,9.30
2023-02-20T18:43:36.812Z,10.48
2023-02-20T18:46:28.469Z,9.60
2023-02-20T18:49:14.461Z,11.05
2023-02-20T18:52:00.300Z,10.57
2023-02-20T18:54:47.015Z,11.77
2023-02-20T18:57:32.711Z,12.15
2023-02-20T19:00:21.011Z,13.07
2023-02-20T19:03:07.146Z,14.15
2023-02-20T19:05:53.521Z,15.32
2023-02-20T19:08:39.502Z,17.70
2023-02-20T19:11:25.403Z,18.73
2023-02-20T19:14:11.360Z,15.25
2023-02-20T19:17:01.555Z,14.23
2023-02-20T19:19:50.670Z,13.07
2023-02-20T19:22:37.131Z,12.75
2023-02-20T19:25:23.341Z,14.35
2023-02-20T19:28:09.798Z,14.27
2023-02-20T19:30:55.545Z,16.55
2023-02-20T19:33:41.553Z,16.67
2023-02-20T19:36:27.327Z,16.80
2023-02-20T19:39:14.532Z,14.70
2023-02-20T19:42:00.469Z,17.02
2023-02-20T19:44:46.507Z,18.23
2023-02-20T19:47:32.456Z,17.10
2023-02-20T19:50:18.587Z,16.08
2023-02-20T19:53:04.671Z,16.02
2023-02-20T19:55:54.405Z,20.80
2023-02-20T19:58:41.490Z,19.70
2023-02-20T20:01:27.765Z,19.13
2023-02-20T20:04:13.817Z,17.90
2023-02-20T20:07:01.040Z,16.40
2023-02-20T20:09:47.228Z,17.55
2023-02-20T20:12:48.228Z,17.23
2023-02-20T20:15:35.951Z,18.13
2023-02-20T20:18:21.652Z,16.48
2023-02-20T20:21:07.676Z,15.60
2023-02-20T20:23:54.595Z,15.57
2023-02-20T20:26:41.157Z,15.38
2023-02-20T20:29:27.556Z,16.25
2023-02-20T20:32:14.265Z,15.20
2023-02-20T20:35:01.161Z,15.68
2023-02-20T20:37:47.693Z,15.75
2023-02-20T20:40:41.755Z,14.88
2023-02-20T20:43:28.418Z,15.02
2023-02-20T20:46:16.001Z,20.98
2023-02-20T20:49:02.657Z,23.70
2023-02-20T20:51:49.095Z,20.83
2023-02-20T20:54:38.030Z,15.35
2023-02-20T20:57:27.399Z,12.65
2023-02-20T21:00:26.078Z,13.55
2023-02-20T21:03:14.803Z,14.50
2023-02-20T21:06:01.101Z,14.73
2023-02-20T21:08:47.567Z,15.23
2023-02-20T21:11:35.475Z,14.38
2023-02-20T21:14:21.813Z,14.80
2023-02-20T21:17:09.736Z,15.77
2023-02-20T21:19:56.130Z,16.23
2023-02-20T21:22:42.972Z,16.05
2023-02-20T21:25:29.891Z,15.23
2023-02-20T21:28:16.475Z,19.58
2023-02-20T21:31:03.721Z,18.23
2023-02-20T21:33:55.407Z,18.52
2023-02-20T21:36:43.322Z,17.60
2023-02-20T21:39:30.451Z,15.43
2023-02-20T21:42:35.201Z,15.90
2023-02-20T21:45:31.192Z,14.25
2023-02-20T21:48:17.697Z,13.38
2023-02-20T21:51:04.094Z,14.65
2023-02-20T21:53:50.845Z,16.90
2023-02-20T21:56:36.601Z,19.65
2023-02-20T21:59:22.595Z,23.20
2023-02-20T22:02:10.527Z,27.65
2023-02-20T22:04:56.652Z,27.08
2023-02-20T22:08:02.841Z,22.83
2023-02-20T22:11:10.539Z,22.65
2023-02-20T22:14:15.192Z,20.58
2023-02-20T22:17:20.014Z,21.23
2023-02-20T22:20:25.911Z,17.90
2023-02-20T22:23:30.644Z,18.05
2023-02-20T22:26:36.363Z,17.35
2023-02-20T22:29:41.438Z,16.52
2023-02-20T22:32:46.170Z,14.38
2023-02-20T22:35:51.612Z,12.60
2023-02-20T22:38:57.073Z,12.18
2023-02-20T22:42:01.597Z,12.32
2023-02-20T22:45:06.638Z,11.00
2023-02-20T22:48:11.342Z,14.43
2023-02-20T22:51:16.449Z,13.73
2023-02-20T22:54:21.007Z,15.20
2023-02-20T22:57:25.745Z,13.38
2023-02-20T23:00:32.066Z,12.07
2023-02-20T23:03:36.658Z,11.20
2023-02-20T23:06:41.303Z,10.93
2023-02-20T23:09:45.758Z,11.15
2023-02-20T23:12:50.606Z,12.93
2023-02-20T23:15:55.361Z,13.05
2023-02-20T23:18:59.970Z,13.98
2023-02-20T23:22:04.457Z,11.73
2023-02-20T23:25:08.900Z,11.05
2023-02-20T23:28:13.768Z,10.07
2023-02-20T23:31:18.313Z,12.02
2023-02-20T23:34:23.540Z,13.07
2023-02-20T23:37:28.200Z,10.63
2023-02-20T23:40:36.920Z,10.80
2023-02-20T23:43:41.963Z,10.88
2023-02-20T23:46:46.596Z,9.27
2023-02-20T23:49:51.334Z,9.00
2023-02-20T23:52:55.805Z,9.27
2023-02-20T23:56:00.431Z,10.40
2023-02-20T23:59:05.393Z,8.55
